Time;durP1;ratioP1;P1;durP2;ratioP2;P2;SDS_P1;SDS_P2;PMS_P1;PMS_P2;Temp;Humidity;BMP_temperature;BMP_pressure;BME280_temperature;BME280_humidity;BME280_pressure;Samples;Min_cycle;Max_cycle;Signal;HPM_P1;HPM_P2
2023/12/18 00:00:58;;;;;;;29.73;13.67;;;;;;;;;;5028930;28;20474;-80
2023/12/18 00:03:23;;;;;;;34.28;18.17;;;;;;;;;;5027954;28;20255;-81
2023/12/18 00:05:48;;;;;;;34.57;17.87;;;;;;;;;;5032513;28;20358;-82
2023/12/18 00:08:14;;;;;;;37.63;17.23;;;;;;;;;;5016284;28;20336;-80
2023/12/18 00:10:39;;;;;;;15.90;10.43;;;;;;;;;;5032938;28;20270;-80
2023/12/18 00:13:05;;;;;;;18.65;11.23;;;;;;;;;;5032768;28;20030;-81
2023/12/18 00:15:30;;;;;;;21.17;11.23;;;;;;;;;;5033275;28;20102;-81
2023/12/18 00:17:56;;;;;;;16.77;11.10;;;;;;;;;;5034736;28;20025;-81
2023/12/18 00:20:21;;;;;;;18.65;10.32;;;;;;;;;;5035012;28;20766;-81
2023/12/18 00:22:46;;;;;;;22.07;10.23;;;;;;;;;;5034955;28;20390;-81
2023/12/18 00:25:12;;;;;;;22.60;10.60;;;;;;;;;;5034063;28;20715;-85
2023/12/18 00:27:37;;;;;;;19.60;10.13;;;;;;;;;;5033869;28;20623;-85
2023/12/18 00:30:03;;;;;;;25.73;11.10;;;;;;;;;;5033919;28;20031;-86
2023/12/18 00:32:28;;;;;;;17.27;10.98;;;;;;;;;;5032048;28;20034;-86
2023/12/18 00:34:53;;;;;;;19.33;11.77;;;;;;;;;;5033788;28;20079;-85
2023/12/18 00:37:18;;;;;;;25.42;11.93;;;;;;;;;;5033229;28;20282;-85
2023/12/18 00:39:44;;;;;;;20.77;10.75;;;;;;;;;;5033044;28;20056;-85
2023/12/18 00:42:09;;;;;;;14.20;8.67;;;;;;;;;;5033454;28;20025;-85
2023/12/18 00:44:34;;;;;;;17.55;9.05;;;;;;;;;;5033461;28;20286;-85
2023/12/18 00:46:59;;;;;;;13.18;7.82;;;;;;;;;;5030896;28;20656;-85
2023/12/18 00:49:27;;;;;;;13.00;7.68;;;;;;;;;;5032187;28;20498;-85
2023/12/18 00:51:53;;;;;;;17.55;8.45;;;;;;;;;;5031506;28;20088;-86
2023/12/18 00:54:18;;;;;;;15.48;8.95;;;;;;;;;;5033011;28;20466;-85
2023/12/18 00:56:44;;;;;;;13.07;8.43;;;;;;;;;;5033168;28;20025;-85
2023/12/18 00:59:09;;;;;;;14.68;8.60;;;;;;;;;;5015236;28;20274;-85
2023/12/18 01:01:34;;;;;;;12.38;7.82;;;;;;;;;;5032835;28;20056;-86
2023/12/18 01:04:00;;;;;;;12.53;8.20;;;;;;;;;;5024925;28;20408;-86
2023/12/18 01:06:25;;;;;;;13.53;7.40;;;;;;;;;;5047824;28;20607;-85
2023/12/18 01:08:50;;;;;;;14.80;7.50;;;;;;;;;;5031673;28;20255;-85
2023/12/18 01:11:15;;;;;;;14.77;9.03;;;;;;;;;;5032680;28;20738;-85
2023/12/18 01:13:40;;;;;;;15.73;8.77;;;;;;;;;;5031438;28;20278;-85
2023/12/18 01:16:06;;;;;;;14.27;8.97;;;;;;;;;;5048242;28;20766;-86
2023/12/18 01:18:31;;;;;;;14.88;8.05;;;;;;;;;;5034685;28;20774;-85
2023/12/18 01:20:56;;;;;;;13.63;8.67;;;;;;;;;;5031462;28;20024;-85
2023/12/18 01:23:21;;;;;;;12.87;8.17;;;;;;;;;;5023376;28;20372;-84
2023/12/18 01:25:47;;;;;;;17.33;9.33;;;;;;;;;;5031221;28;20341;-85
2023/12/18 01:28:12;;;;;;;16.37;8.87;;;;;;;;;;5047751;28;20365;-86
2023/12/18 01:30:37;;;;;;;19.50;10.23;;;;;;;;;;5030856;28;20362;-85
2023/12/18 01:33:02;;;;;;;20.30;10.37;;;;;;;;;;5032635;28;20361;-86
2023/12/18 01:35:27;;;;;;;18.38;9.48;;;;;;;;;;5031554;28;20345;-85
2023/12/18 01:37:53;;;;;;;18.17;10.43;;;;;;;;;;5030593;28;20025;-85
2023/12/18 01:40:18;;;;;;;15.53;8.83;;;;;;;;;;5032791;28;20342;-85
2023/12/18 01:42:44;;;;;;;20.00;9.70;;;;;;;;;;5032192;28;20377;-86
2023/12/18 01:45:09;;;;;;;16.70;7.75;;;;;;;;;;5031112;28;20836;-85
2023/12/18 01:47:34;;;;;;;17.42;9.40;;;;;;;;;;5031234;28;20052;-85
2023/12/18 01:50:00;;;;;;;22.65;8.65;;;;;;;;;;5032342;28;20029;-85
2023/12/18 01:52:25;;;;;;;18.77;10.00;;;;;;;;;;5031173;28;20026;-86
2023/12/18 01:54:50;;;;;;;27.35;12.15;;;;;;;;;;5030935;28;20269;-86
2023/12/18 01:57:17;;;;;;;23.02;11.30;;;;;;;;;;5032252;28;20053;-85
2023/12/18 01:59:42;;;;;;;24.98;12.02;;;;;;;;;;5031209;28;20429;-85
2023/12/18 02:02:07;;;;;;;25.20;11.67;;;;;;;;;;5032018;28;20049;-85
2023/12/18 02:04:33;;;;;;;26.05;11.88;;;;;;;;;;5030262;28;20319;-85
2023/12/18 02:07:00;;;;;;;27.80;10.90;;;;;;;;;;5031415;28;20072;-85
2023/12/18 02:09:25;;;;;;;22.23;9.68;;;;;;;;;;5030963;28;20021;-85
2023/12/18 02:11:50;;;;;;;18.98;9.23;;;;;;;;;;5031543;28;20029;-85
2023/12/18 02:14:16;;;;;;;17.13;9.67;;;;;;;;;;5026311;28;20108;-85
2023/12/18 02:16:41;;;;;;;13.87;8.67;;;;;;;;;;5035533;28;20317;-86
2023/12/18 02:19:20;;;;;;;16.83;8.50;;;;;;;;;;5052394;28;20255;-86
2023/12/18 02:21:45;;;;;;;17.05;9.70;;;;;;;;;;5036817;28;20281;-84
2023/12/18 02:24:10;;;;;;;21.00;10.05;;;;;;;;;;5034937;28;20018;-86
2023/12/18 02:26:36;;;;;;;13.27;7.70;;;;;;;;;;5036080;28;20034;-85
2023/12/18 02:29:01;;;;;;;16.83;8.60;;;;;;;;;;5036138;28;20809;-85
2023/12/18 02:31:26;;;;;;;13.43;8.17;;;;;;;;;;5035904;28;20298;-85
2023/12/18 02:33:51;;;;;;;17.40;9.97;;;;;;;;;;5035550;28;20768;-86
2023/12/18 02:36:17;;;;;;;21.83;9.60;;;;;;;;;;5030856;28;20267;-85
2023/12/18 02:38:42;;;;;;;19.55;9.40;;;;;;;;;;5032299;28;20112;-85
2023/12/18 02:41:07;;;;;;;20.83;9.40;;;;;;;;;;5035680;28;20071;-85
2023/12/18 02:43:32;;;;;;;17.93;8.63;;;;;;;;;;5035740;28;20313;-85
2023/12/18 02:45:57;;;;;;;20.20;9.65;;;;;;;;;;5036063;28;20329;-85
2023/12/18 02:48:23;;;;;;;14.83;9.37;;;;;;;;;;5033840;28;20029;-85
2023/12/18 02:50:48;;;;;;;21.35;10.52;;;;;;;;;;5035719;28;20274;-86
2023/12/18 02:53:15;;;;;;;19.83;10.17;;;;;;;;;;5034145;28;20596;-85
2023/12/18 02:55:40;;;;;;;16.27;9.15;;;;;;;;;;5018108;28;20780;-86
2023/12/18 02:58:05;;;;;;;27.23;10.65;;;;;;;;;;5034409;28;20047;-86
2023/12/18 03:00:30;;;;;;;19.73;10.03;;;;;;;;;;5033418;28;20121;-85
2023/12/18 03:02:55;;;;;;;14.07;8.07;;;;;;;;;;5030966;28;20346;-85
2023/12/18 03:05:22;;;;;;;16.13;9.27;;;;;;;;;;5032294;28;21155;-85
2023/12/18 03:07:47;;;;;;;17.10;9.05;;;;;;;;;;5033812;28;20445;-85
2023/12/18 03:10:12;;;;;;;17.27;9.20;;;;;;;;;;5033688;28;20052;-85
2023/12/18 03:12:38;;;;;;;13.90;7.15;;;;;;;;;;5034313;28;20040;-85
2023/12/18 03:15:03;;;;;;;11.00;7.37;;;;;;;;;;5034637;28;20064;-85
2023/12/18 03:17:28;;;;;;;18.20;7.47;;;;;;;;;;5033981;28;20409;-85
2023/12/18 03:19:54;;;;;;;11.27;7.65;;;;;;;;;;5034911;28;20060;-84
2023/12/18 03:22:19;;;;;;;11.68;7.40;;;;;;;;;;5025868;28;20034;-85
2023/12/18 03:24:44;;;;;;;10.70;7.03;;;;;;;;;;5033419;28;20521;-86
2023/12/18 03:27:09;;;;;;;10.57;6.93;;;;;;;;;;5033629;28;20266;-86
2023/12/18 03:29:35;;;;;;;10.93;6.53;;;;;;;;;;5033462;28;20386;-86
2023/12/18 03:32:00;;;;;;;8.73;6.38;;;;;;;;;;5035845;28;20083;-85
2023/12/18 03:34:26;;;;;;;10.05;6.93;;;;;;;;;;5034785;28;20466;-85
2023/12/18 03:36:51;;;;;;;13.52;7.97;;;;;;;;;;5016888;28;20029;-85
2023/12/18 03:39:16;;;;;;;10.53;6.53;;;;;;;;;;5049447;28;20022;-85
2023/12/18 03:41:41;;;;;;;11.23;6.43;;;;;;;;;;5030888;28;20267;-85
2023/12/18 03:44:06;;;;;;;11.45;6.20;;;;;;;;;;5028851;28;20313;-85
2023/12/18 03:46:32;;;;;;;12.60;7.03;;;;;;;;;;5034585;28;20026;-85
2023/12/18 03:48:57;;;;;;;10.20;5.88;;;;;;;;;;5033862;28;20266;-85
2023/12/18 03:51:22;;;;;;;13.13;6.53;;;;;;;;;;5033097;28;20026;-85
2023/12/18 03:53:47;;;;;;;18.80;8.30;;;;;;;;;;5032555;28;20271;-85
2023/12/18 03:56:13;;;;;;;9.83;6.53;;;;;;;;;;5034826;28;20013;-85
2023/12/18 03:58:38;;;;;;;12.57;6.00;;;;;;;;;;5033087;28;20329;-86
2023/12/18 04:01:03;;;;;;;8.65;5.78;;;;;;;;;;5034320;28;20258;-86
2023/12/18 04:03:28;;;;;;;10.03;6.20;;;;;;;;;;5024413;28;20048;-86
2023/12/18 04:05:53;;;;;;;12.35;6.97;;;;;;;;;;5032920;28;20263;-86
2023/12/18 04:08:19;;;;;;;10.67;6.27;;;;;;;;;;5034103;28;20072;-85
2023/12/18 04:10:44;;;;;;;11.52;6.32;;;;;;;;;;5037787;28;20267;-85
2023/12/18 04:13:09;;;;;;;9.40;6.43;;;;;;;;;;5049783;28;20140;-86
2023/12/18 04:15:34;;;;;;;9.97;5.80;;;;;;;;;;5033734;28;20025;-85
2023/12/18 04:18:00;;;;;;;12.53;7.33;;;;;;;;;;5033533;28;20335;-85
2023/12/18 04:20:25;;;;;;;10.60;6.90;;;;;;;;;;5031245;28;20353;-85
2023/12/18 04:22:51;;;;;;;9.65;5.90;;;;;;;;;;5047884;28;20667;-86
2023/12/18 04:25:17;;;;;;;9.32;5.88;;;;;;;;;;5033276;28;20013;-85
2023/12/18 04:27:42;;;;;;;9.05;5.82;;;;;;;;;;5033187;28;20491;-85
2023/12/18 04:30:07;;;;;;;13.77;6.60;;;;;;;;;;5030149;28;20021;-85
2023/12/18 04:32:33;;;;;;;10.13;6.18;;;;;;;;;;5029244;28;20266;-86
2023/12/18 04:34:58;;;;;;;9.20;6.53;;;;;;;;;;5033094;28;20017;-87
2023/12/18 04:37:23;;;;;;;10.32;6.55;;;;;;;;;;5034008;28;20285;-87
2023/12/18 04:39:48;;;;;;;9.80;6.17;;;;;;;;;;5033477;28;20113;-85
2023/12/18 04:42:13;;;;;;;10.10;5.75;;;;;;;;;;5033068;28;20548;-86
2023/12/18 04:44:39;;;;;;;10.23;5.87;;;;;;;;;;5033472;28;20014;-86
2023/12/18 04:47:04;;;;;;;9.60;6.20;;;;;;;;;;5031876;28;20346;-85
2023/12/18 04:49:30;;;;;;;10.55;6.60;;;;;;;;;;5031767;28;20026;-86
2023/12/18 04:51:55;;;;;;;7.87;5.00;;;;;;;;;;5032181;28;20034;-86
2023/12/18 04:54:20;;;;;;;8.25;5.40;;;;;;;;;;5031658;28;20286;-85
2023/12/18 04:56:45;;;;;;;10.03;5.50;;;;;;;;;;5033129;28;20493;-84
2023/12/18 04:59:11;;;;;;;10.37;6.50;;;;;;;;;;5031878;28;20368;-85
2023/12/18 05:01:36;;;;;;;8.75;5.45;;;;;;;;;;5015532;28;20267;-85
2023/12/18 05:04:02;;;;;;;9.57;6.00;;;;;;;;;;5032916;28;20045;-84
2023/12/18 05:06:28;;;;;;;15.15;6.35;;;;;;;;;;5031331;28;20029;-84
2023/12/18 05:08:53;;;;;;;12.00;7.18;;;;;;;;;;5027788;28;20032;-84
2023/12/18 05:11:23;;;;;;;10.35;5.47;;;;;;;;;;5031716;28;20019;-86
2023/12/18 05:13:48;;;;;;;12.15;6.05;;;;;;;;;;5048349;28;20394;-86
2023/12/18 05:16:14;;;;;;;7.88;5.65;;;;;;;;;;5031626;28;20024;-86
2023/12/18 05:18:39;;;;;;;9.55;5.70;;;;;;;;;;5031140;28;20048;-86
2023/12/18 05:21:04;;;;;;;13.50;7.00;;;;;;;;;;5032521;28;20021;-86
2023/12/18 05:23:30;;;;;;;10.77;4.93;;;;;;;;;;5032475;28;20504;-87
2023/12/18 05:25:55;;;;;;;9.82;5.63;;;;;;;;;;5032422;28;20018;-85
2023/12/18 05:28:21;;;;;;;9.63;5.90;;;;;;;;;;5033669;28;20034;-86
2023/12/18 05:30:46;;;;;;;11.10;6.50;;;;;;;;;;5032313;28;20251;-86
2023/12/18 05:33:11;;;;;;;13.00;6.10;;;;;;;;;;5032293;28;20033;-86
2023/12/18 05:35:37;;;;;;;12.00;5.97;;;;;;;;;;5032220;28;20258;-86
2023/12/18 05:38:02;;;;;;;10.63;6.47;;;;;;;;;;5033473;28;20029;-87
2023/12/18 05:40:27;;;;;;;13.57;8.30;;;;;;;;;;5033482;28;20020;-86
2023/12/18 05:42:52;;;;;;;13.30;8.87;;;;;;;;;;5048776;28;20021;-86
2023/12/18 05:45:17;;;;;;;14.40;7.68;;;;;;;;;;5033342;28;20247;-86
2023/12/18 05:47:43;;;;;;;19.83;9.02;;;;;;;;;;5031178;28;20551;-86
2023/12/18 05:50:08;;;;;;;12.30;7.53;;;;;;;;;;5032123;28;20064;-86
2023/12/18 05:52:33;;;;;;;12.50;8.75;;;;;;;;;;5033341;28;20254;-87
2023/12/18 05:54:59;;;;;;;13.38;7.22;;;;;;;;;;5032044;28;20030;-86
2023/12/18 05:57:24;;;;;;;11.60;7.18;;;;;;;;;;5031980;28;20096;-86
2023/12/18 05:59:49;;;;;;;12.93;7.20;;;;;;;;;;5033535;28;20041;-86
2023/12/18 06:02:14;;;;;;;14.10;8.40;;;;;;;;;;5048548;28;20497;-86
2023/12/18 06:04:43;;;;;;;17.43;8.87;;;;;;;;;;5048389;28;20049;-86
2023/12/18 06:07:08;;;;;;;15.50;9.07;;;;;;;;;;5031931;28;20308;-86
2023/12/18 06:09:33;;;;;;;11.80;7.22;;;;;;;;;;5031924;28;20034;-86
2023/12/18 06:11:59;;;;;;;12.47;7.50;;;;;;;;;;5048489;28;20545;-86
2023/12/18 06:14:24;;;;;;;12.20;6.93;;;;;;;;;;5031903;28;20782;-80
2023/12/18 06:16:49;;;;;;;13.43;8.00;;;;;;;;;;5031701;28;20021;-80
2023/12/18 06:19:15;;;;;;;13.65;7.40;;;;;;;;;;5032965;28;20267;-81
2023/12/18 06:21:41;;;;;;;12.73;6.78;;;;;;;;;;5033032;28;20081;-81
2023/12/18 06:24:06;;;;;;;11.43;6.55;;;;;;;;;;5031665;28;20056;-81
2023/12/18 06:26:31;;;;;;;15.38;7.72;;;;;;;;;;5032958;28;20021;-81
2023/12/18 06:28:56;;;;;;;11.17;6.37;;;;;;;;;;5032955;28;20120;-81
2023/12/18 06:31:22;;;;;;;14.63;6.50;;;;;;;;;;5033183;28;20326;-81
2023/12/18 06:33:47;;;;;;;11.53;6.87;;;;;;;;;;5032942;28;20706;-81
2023/12/18 06:36:16;;;;;;;9.47;5.73;;;;;;;;;;5031571;28;20781;-80
2023/12/18 06:38:41;;;;;;;15.23;8.82;;;;;;;;;;5032778;28;20298;-81
2023/12/18 06:41:07;;;;;;;16.00;8.87;;;;;;;;;;5031622;28;20523;-81
2023/12/18 06:43:32;;;;;;;29.58;14.77;;;;;;;;;;5031592;28;20746;-80
2023/12/18 06:45:59;;;;;;;22.00;12.87;;;;;;;;;;5032832;28;20018;-81
2023/12/18 06:48:24;;;;;;;22.70;11.57;;;;;;;;;;5031524;28;20259;-80
2023/12/18 06:50:49;;;;;;;21.50;12.35;;;;;;;;;;5031540;28;20025;-80
2023/12/18 06:53:15;;;;;;;17.30;9.60;;;;;;;;;;5032701;28;20128;-81
2023/12/18 06:55:40;;;;;;;27.30;14.00;;;;;;;;;;5031459;28;20369;-81
2023/12/18 06:58:05;;;;;;;42.03;19.98;;;;;;;;;;5032773;28;20357;-80
2023/12/18 07:00:30;;;;;;;36.43;16.53;;;;;;;;;;5036328;28;20390;-81
2023/12/18 07:02:55;;;;;;;68.20;28.00;;;;;;;;;;5051616;28;20762;-81
2023/12/18 07:05:21;;;;;;;41.30;19.27;;;;;;;;;;5036112;28;20278;-80
2023/12/18 07:07:46;;;;;;;54.55;22.48;;;;;;;;;;5036243;28;20255;-81
2023/12/18 07:10:11;;;;;;;47.23;21.33;;;;;;;;;;5034850;28;20032;-81
2023/12/18 07:12:37;;;;;;;41.93;21.67;;;;;;;;;;5034899;28;20269;-80
2023/12/18 07:15:02;;;;;;;32.37;16.53;;;;;;;;;;5036108;28;20249;-81
2023/12/18 07:17:27;;;;;;;39.85;18.48;;;;;;;;;;5036091;28;20317;-81
2023/12/18 07:19:52;;;;;;;33.07;15.57;;;;;;;;;;5035962;28;20017;-80
2023/12/18 07:22:18;;;;;;;27.50;14.30;;;;;;;;;;5051272;28;20255;-80
2023/12/18 07:24:43;;;;;;;26.10;12.82;;;;;;;;;;5034735;28;20250;-86
2023/12/18 07:27:08;;;;;;;22.23;11.27;;;;;;;;;;5018216;28;20397;-86
2023/12/18 07:29:33;;;;;;;24.48;11.95;;;;;;;;;;5035865;28;20723;-86
2023/12/18 07:31:59;;;;;;;22.10;9.27;;;;;;;;;;5051232;28;20021;-86
2023/12/18 07:34:24;;;;;;;19.30;10.40;;;;;;;;;;5035834;28;20282;-86
2023/12/18 07:36:49;;;;;;;18.07;9.03;;;;;;;;;;5035971;28;20048;-86
2023/12/18 07:39:14;;;;;;;18.02;9.65;;;;;;;;;;5035655;28;20269;-86
2023/12/18 07:41:40;;;;;;;12.48;8.02;;;;;;;;;;5034472;28;20104;-86
2023/12/18 07:44:05;;;;;;;14.80;7.85;;;;;;;;;;5035604;28;20024;-86
2023/12/18 07:46:30;;;;;;;10.53;5.87;;;;;;;;;;5034428;28;20413;-87
2023/12/18 07:48:55;;;;;;;13.07;6.63;;;;;;;;;;5035487;28;20246;-86
2023/12/18 07:51:21;;;;;;;12.30;7.50;;;;;;;;;;5035461;28;20054;-86
2023/12/18 07:53:46;;;;;;;18.40;7.70;;;;;;;;;;5035463;28;20531;-86
2023/12/18 07:56:11;;;;;;;13.55;7.55;;;;;;;;;;5050720;28;20304;-86
2023/12/18 07:58:37;;;;;;;23.67;14.57;;;;;;;;;;5034020;28;20036;-86
2023/12/18 08:01:03;;;;;;;30.73;15.20;;;;;;;;;;5034008;28;20366;-86
2023/12/18 08:03:29;;;;;;;33.03;18.85;;;;;;;;;;5033724;28;20055;-86
2023/12/18 08:05:54;;;;;;;43.38;24.73;;;;;;;;;;5034068;28;20521;-86
2023/12/18 08:08:20;;;;;;;49.17;27.40;;;;;;;;;;5033865;28;20048;-86
2023/12/18 08:10:45;;;;;;;42.67;24.48;;;;;;;;;;5034164;28;20281;-86
2023/12/18 08:13:10;;;;;;;39.33;21.80;;;;;;;;;;5033826;28;20080;-86
2023/12/18 08:15:35;;;;;;;40.75;22.65;;;;;;;;;;5033739;28;20258;-86
2023/12/18 08:18:01;;;;;;;39.63;21.08;;;;;;;;;;5034862;28;20469;-87
2023/12/18 08:20:26;;;;;;;27.33;12.10;;;;;;;;;;5035057;28;20171;-86
2023/12/18 08:22:51;;;;;;;15.13;9.47;;;;;;;;;;5035149;28;20235;-86
2023/12/18 08:25:17;;;;;;;20.73;9.03;;;;;;;;;;5034759;28;20715;-86
2023/12/18 08:27:42;;;;;;;24.70;13.98;;;;;;;;;;5034728;28;20738;-86
2023/12/18 08:30:11;;;;;;;25.70;13.83;;;;;;;;;;5034977;28;20047;-86
2023/12/18 08:32:37;;;;;;;20.60;12.50;;;;;;;;;;5034699;28;20345;-86
2023/12/18 08:35:02;;;;;;;18.33;11.23;;;;;;;;;;5034991;28;20528;-81
2023/12/18 08:37:28;;;;;;;16.60;9.30;;;;;;;;;;5033238;28;20021;-81
2023/12/18 08:39:53;;;;;;;14.98;8.77;;;;;;;;;;5033271;28;20017;-81
2023/12/18 08:42:18;;;;;;;16.92;9.48;;;;;;;;;;5034465;28;20060;-81
2023/12/18 08:44:43;;;;;;;19.73;11.77;;;;;;;;;;5033186;28;20116;-82
2023/12/18 08:47:09;;;;;;;22.60;10.85;;;;;;;;;;5033061;28;20259;-82
2023/12/18 08:49:34;;;;;;;16.50;7.90;;;;;;;;;;5033016;28;20025;-82
2023/12/18 08:51:59;;;;;;;17.08;11.20;;;;;;;;;;5033017;28;20258;-81
2023/12/18 08:54:25;;;;;;;22.30;13.55;;;;;;;;;;5034295;28;20434;-82
2023/12/18 08:56:51;;;;;;;18.43;12.30;;;;;;;;;;5032836;28;20493;-82
2023/12/18 08:59:17;;;;;;;18.63;11.85;;;;;;;;;;5049452;28;20342;-82
2023/12/18 09:01:43;;;;;;;17.60;12.05;;;;;;;;;;5034068;28;20466;-82
2023/12/18 09:04:08;;;;;;;26.93;14.67;;;;;;;;;;5032560;28;20067;-82
2023/12/18 09:06:35;;;;;;;18.58;11.80;;;;;;;;;;5032725;28;20329;-82
2023/12/18 09:09:00;;;;;;;18.83;11.05;;;;;;;;;;5049275;28;20028;-82
2023/12/18 09:11:29;;;;;;;14.93;8.68;;;;;;;;;;5033904;28;20025;-82
2023/12/18 09:13:55;;;;;;;11.90;7.30;;;;;;;;;;5033925;28;20029;-82
2023/12/18 09:16:20;;;;;;;13.88;8.02;;;;;;;;;;5032823;28;20033;-82
2023/12/18 09:18:45;;;;;;;14.27;7.43;;;;;;;;;;5033702;28;20033;-82
2023/12/18 09:21:10;;;;;;;12.03;7.10;;;;;;;;;;5032271;28;20100;-82
2023/12/18 09:23:36;;;;;;;11.30;6.60;;;;;;;;;;5032434;28;20293;-82
2023/12/18 09:26:01;;;;;;;13.38;7.55;;;;;;;;;;5033603;28;20330;-82
2023/12/18 09:28:26;;;;;;;10.80;6.47;;;;;;;;;;5033642;28;20100;-82
2023/12/18 09:30:51;;;;;;;11.07;7.30;;;;;;;;;;5032372;28;20095;-82
2023/12/18 09:33:16;;;;;;;12.77;7.10;;;;;;;;;;5032306;28;20373;-82
2023/12/18 09:35:42;;;;;;;12.87;7.13;;;;;;;;;;5032219;28;20334;-82
2023/12/18 09:38:07;;;;;;;14.43;7.63;;;;;;;;;;5032125;28;20298;-82
2023/12/18 09:40:32;;;;;;;12.13;6.35;;;;;;;;;;5032162;28;20258;-82
2023/12/18 09:42:57;;;;;;;11.70;7.65;;;;;;;;;;5032176;28;20071;-82
2023/12/18 09:45:23;;;;;;;13.38;7.53;;;;;;;;;;5033542;28;20014;-82
2023/12/18 09:47:54;;;;;;;11.90;6.97;;;;;;;;;;5033362;28;20037;-82
2023/12/18 09:50:20;;;;;;;14.35;7.35;;;;;;;;;;5033255;28;20531;-82
2023/12/18 09:52:49;;;;;;;14.07;6.97;;;;;;;;;;5032023;28;20112;-82
2023/12/18 09:55:14;;;;;;;10.70;6.65;;;;;;;;;;5031992;28;20022;-82
2023/12/18 09:57:40;;;;;;;12.73;7.85;;;;;;;;;;5031870;28;20033;-82
2023/12/18 10:00:06;;;;;;;11.32;7.35;;;;;;;;;;5031922;28;20014;-82
2023/12/18 10:02:32;;;;;;;13.07;7.47;;;;;;;;;;5031877;28;20025;-82
2023/12/18 10:04:58;;;;;;;14.10;7.85;;;;;;;;;;5032910;28;20568;-82
2023/12/18 10:07:23;;;;;;;12.17;7.13;;;;;;;;;;5033154;28;20025;-82
2023/12/18 10:09:48;;;;;;;17.93;8.23;;;;;;;;;;5031881;28;20243;-82
2023/12/18 10:12:17;;;;;;;14.15;7.80;;;;;;;;;;5033145;28;20250;-82
2023/12/18 10:14:42;;;;;;;13.65;7.22;;;;;;;;;;5032335;28;20031;-82
2023/12/18 10:17:07;;;;;;;12.80;7.53;;;;;;;;;;5031715;28;20025;-81
2023/12/18 10:19:32;;;;;;;11.67;7.23;;;;;;;;;;5031723;28;20417;-81
2023/12/18 10:21:58;;;;;;;12.10;7.33;;;;;;;;;;5031762;28;20285;-82
2023/12/18 10:24:23;;;;;;;18.85;8.45;;;;;;;;;;5048382;28;20250;-82
2023/12/18 10:26:48;;;;;;;14.07;7.82;;;;;;;;;;5033005;28;20018;-82
2023/12/18 10:29:14;;;;;;;12.93;7.70;;;;;;;;;;5031676;28;20021;-81
2023/12/18 10:31:39;;;;;;;12.52;7.20;;;;;;;;;;5031659;28;20285;-82
2023/12/18 10:34:05;;;;;;;13.43;7.13;;;;;;;;;;5033424;28;20025;-82
2023/12/18 10:36:32;;;;;;;10.68;5.97;;;;;;;;;;5035519;28;20347;-82
2023/12/18 10:38:59;;;;;;;14.15;7.93;;;;;;;;;;5035449;28;20027;-82
2023/12/18 10:41:27;;;;;;;15.10;7.00;;;;;;;;;;5035492;28;20018;-82
2023/12/18 10:43:52;;;;;;;11.93;7.80;;;;;;;;;;5035406;28;20044;-82
2023/12/18 10:46:18;;;;;;;10.50;6.88;;;;;;;;;;5035367;28;20017;-82
2023/12/18 10:48:47;;;;;;;13.98;7.80;;;;;;;;;;5035529;28;20393;-82
2023/12/18 10:51:13;;;;;;;13.70;7.50;;;;;;;;;;5035284;28;20025;-82
2023/12/18 10:53:39;;;;;;;13.40;7.78;;;;;;;;;;5036520;28;20539;-82
2023/12/18 10:56:05;;;;;;;14.10;8.27;;;;;;;;;;5035271;28;20079;-81
2023/12/18 10:58:30;;;;;;;12.35;7.47;;;;;;;;;;5035049;28;20025;-82
2023/12/18 11:00:56;;;;;;;11.00;6.97;;;;;;;;;;5035127;28;20017;-81
2023/12/18 11:03:26;;;;;;;14.10;7.55;;;;;;;;;;5035029;28;20461;-82
2023/12/18 11:05:53;;;;;;;12.30;7.53;;;;;;;;;;5036271;28;20018;-81
2023/12/18 11:08:18;;;;;;;12.25;7.75;;;;;;;;;;5034969;28;20056;-81
2023/12/18 11:10:44;;;;;;;12.18;7.82;;;;;;;;;;5034926;28;20030;-82
2023/12/18 11:13:19;;;;;;;13.68;7.97;;;;;;;;;;5051488;28;20119;-82
2023/12/18 11:16:03;;;;;;;11.80;7.65;;;;;;;;;;5051414;28;20029;-82
2023/12/18 11:18:28;;;;;;;13.27;7.65;;;;;;;;;;5035985;28;20064;-82
2023/12/18 11:20:54;;;;;;;13.00;8.03;;;;;;;;;;5036038;28;20462;-82
2023/12/18 11:23:19;;;;;;;14.63;7.97;;;;;;;;;;5051289;28;20385;-82
2023/12/18 11:25:49;;;;;;;17.13;8.95;;;;;;;;;;5035906;28;20014;-82
2023/12/18 11:28:15;;;;;;;13.18;7.55;;;;;;;;;;5035843;28;20018;-82
2023/12/18 11:30:42;;;;;;;15.05;8.20;;;;;;;;;;5034549;28;20485;-82
2023/12/18 11:33:11;;;;;;;13.95;8.75;;;;;;;;;;5034495;28;20108;-82
2023/12/18 11:35:38;;;;;;;15.38;8.35;;;;;;;;;;5051073;28;20021;-81
2023/12/18 11:38:08;;;;;;;15.88;8.60;;;;;;;;;;5035507;28;20030;-82
2023/12/18 11:40:39;;;;;;;12.65;8.00;;;;;;;;;;5034332;28;20014;-81
2023/12/18 11:43:05;;;;;;;12.40;7.25;;;;;;;;;;5033864;28;20108;-82
2023/12/18 11:45:31;;;;;;;13.32;7.85;;;;;;;;;;5034220;28;20107;-81
2023/12/18 11:47:57;;;;;;;13.38;7.85;;;;;;;;;;5035496;28;20025;-82
2023/12/18 11:50:26;;;;;;;16.20;8.77;;;;;;;;;;5034174;28;20113;-81
2023/12/18 11:52:55;;;;;;;13.00;7.75;;;;;;;;;;5035320;28;20473;-81
2023/12/18 11:55:38;;;;;;;13.35;7.32;;;;;;;;;;5034119;28;20022;-81
2023/12/18 11:58:04;;;;;;;16.73;8.25;;;;;;;;;;5035150;28;20059;-82
2023/12/18 12:00:29;;;;;;;17.98;9.23;;;;;;;;;;5035228;28;20052;-82
2023/12/18 12:02:55;;;;;;;13.05;7.85;;;;;;;;;;5033889;28;20385;-82
2023/12/18 12:05:20;;;;;;;14.75;8.40;;;;;;;;;;5035086;28;20083;-82
2023/12/18 12:07:49;;;;;;;11.40;7.80;;;;;;;;;;5033849;28;20025;-81
2023/12/18 12:10:14;;;;;;;13.32;8.13;;;;;;;;;;5033820;28;20346;-82
2023/12/18 12:12:39;;;;;;;13.48;8.02;;;;;;;;;;5033795;28;20469;-82
2023/12/18 12:15:05;;;;;;;12.87;7.70;;;;;;;;;;5033700;28;20041;-82
2023/12/18 12:17:30;;;;;;;14.68;7.72;;;;;;;;;;5034847;28;20320;-82
2023/12/18 12:19:55;;;;;;;17.30;8.17;;;;;;;;;;5033710;28;20473;-82
2023/12/18 12:22:20;;;;;;;13.10;8.32;;;;;;;;;;5033515;28;20255;-82
2023/12/18 12:24:46;;;;;;;13.23;7.93;;;;;;;;;;5034853;28;20107;-82
2023/12/18 12:27:11;;;;;;;13.90;7.33;;;;;;;;;;5034730;28;20384;-82
2023/12/18 12:29:37;;;;;;;14.05;7.70;;;;;;;;;;5033438;28;20262;-82
2023/12/18 12:32:02;;;;;;;11.35;7.57;;;;;;;;;;5033411;28;20421;-81
2023/12/18 12:34:27;;;;;;;11.52;7.75;;;;;;;;;;5033342;28;20112;-82
2023/12/18 12:36:52;;;;;;;12.52;7.38;;;;;;;;;;5033227;28;20025;-82
2023/12/18 12:39:18;;;;;;;10.23;6.73;;;;;;;;;;5033333;28;20476;-81
2023/12/18 12:41:43;;;;;;;10.32;6.45;;;;;;;;;;5033200;28;20250;-81
2023/12/18 12:44:09;;;;;;;10.57;6.70;;;;;;;;;;5034522;28;20056;-82
2023/12/18 12:46:34;;;;;;;13.45;6.95;;;;;;;;;;5033102;28;20014;-82
2023/12/18 12:49:00;;;;;;;13.27;6.88;;;;;;;;;;5033077;28;20386;-82
2023/12/18 12:51:25;;;;;;;11.75;6.80;;;;;;;;;;5032998;28;20021;-82
2023/12/18 12:53:50;;;;;;;10.60;6.70;;;;;;;;;;5033012;28;20037;-82
2023/12/18 12:56:15;;;;;;;13.05;7.13;;;;;;;;;;5032426;28;20246;-82
2023/12/18 12:58:41;;;;;;;11.65;7.03;;;;;;;;;;5032855;28;20032;-82
2023/12/18 13:01:06;;;;;;;10.07;6.60;;;;;;;;;;5034160;28;20014;-82
2023/12/18 13:03:31;;;;;;;9.70;6.32;;;;;;;;;;5033870;28;20360;-81
2023/12/18 13:05:58;;;;;;;17.20;7.77;;;;;;;;;;5032721;28;20478;-81
2023/12/18 13:08:24;;;;;;;9.52;6.65;;;;;;;;;;5032761;28;20262;-81
2023/12/18 13:10:49;;;;;;;11.70;7.05;;;;;;;;;;5032670;28;20068;-81
2023/12/18 13:13:14;;;;;;;10.93;6.28;;;;;;;;;;5034191;28;20097;-82
2023/12/18 13:15:40;;;;;;;9.13;5.82;;;;;;;;;;5034118;28;20099;-86
2023/12/18 13:18:05;;;;;;;10.00;6.10;;;;;;;;;;5033820;28;20048;-86
2023/12/18 13:20:30;;;;;;;10.10;6.45;;;;;;;;;;5032586;28;20239;-85
2023/12/18 13:22:56;;;;;;;11.33;7.20;;;;;;;;;;5033742;28;20025;-86
2023/12/18 13:25:21;;;;;;;11.32;6.10;;;;;;;;;;5032521;28;20345;-86
2023/12/18 13:27:46;;;;;;;10.07;6.68;;;;;;;;;;5033697;28;20021;-86
2023/12/18 13:30:11;;;;;;;9.50;5.90;;;;;;;;;;5032439;28;20478;-86
2023/12/18 13:32:39;;;;;;;10.27;5.87;;;;;;;;;;5032393;28;20255;-87
2023/12/18 13:35:06;;;;;;;8.82;5.82;;;;;;;;;;5033556;28;20294;-86
2023/12/18 13:37:32;;;;;;;10.23;5.93;;;;;;;;;;5032181;28;20028;-86
2023/12/18 13:39:57;;;;;;;9.13;5.83;;;;;;;;;;5032203;28;20018;-86
2023/12/18 13:42:22;;;;;;;10.97;6.27;;;;;;;;;;5032219;28;20259;-86
2023/12/18 13:44:48;;;;;;;8.90;5.63;;;;;;;;;;5032155;28;20243;-87
2023/12/18 13:47:14;;;;;;;11.27;6.57;;;;;;;;;;5032180;28;20258;-86
2023/12/18 13:49:39;;;;;;;11.93;6.40;;;;;;;;;;5032234;28;20044;-86
2023/12/18 13:52:05;;;;;;;10.82;7.07;;;;;;;;;;5031989;28;20021;-86
2023/12/18 13:54:30;;;;;;;11.52;6.60;;;;;;;;;;5032077;28;20025;-86
2023/12/18 13:56:55;;;;;;;11.48;6.82;;;;;;;;;;5031985;28;20027;-86
2023/12/18 13:59:21;;;;;;;12.05;6.22;;;;;;;;;;5032058;28;20075;-87
2023/12/18 14:01:46;;;;;;;7.77;5.40;;;;;;;;;;5031944;28;20021;-86
2023/12/18 14:04:11;;;;;;;9.35;5.60;;;;;;;;;;5032622;28;20627;-86
2023/12/18 14:06:37;;;;;;;9.43;5.28;;;;;;;;;;5033230;28;20021;-86
2023/12/18 14:09:04;;;;;;;9.35;5.60;;;;;;;;;;5033782;28;20024;-87
2023/12/18 14:11:29;;;;;;;9.90;5.75;;;;;;;;;;5036141;28;20112;-87
2023/12/18 14:13:54;;;;;;;9.85;5.65;;;;;;;;;;5037291;28;20027;-86
2023/12/18 14:16:19;;;;;;;11.00;6.35;;;;;;;;;;5035987;28;20107;-86
2023/12/18 14:18:49;;;;;;;10.03;6.07;;;;;;;;;;5035849;28;20021;-86